sensor_id;sensor_type;location;lat;lon;timestamp;temperature;humidity
1391;DHT22;690;51.454;7.194;2023-09-19T00:01:43;13.80;1.00
1391;DHT22;690;51.454;7.194;2023-09-19T00:04:12;13.70;1.00
1391;DHT22;690;51.454;7.194;2023-09-19T00:06:40;13.70;1.00
1391;DHT22;690;51.454;7.194;2023-09-19T00:09:09;13.70;1.00
1391;DHT22;690;51.454;7.194;2023-09-19T00:11:37;13.70;99.90
1391;DHT22;690;51.454;7.194;2023-09-19T00:14:04;13.60;99.90
1391;DHT22;690;51.454;7.194;2023-09-19T00:16:34;13.60;99.90
1391;DHT22;690;51.454;7.194;2023-09-19T00:19:01;13.50;19.50
1391;DHT22;690;51.454;7.194;2023-09-19T00:21:35;13.50;1.00
1391;DHT22;690;51.454;7.194;2023-09-19T00:24:03;13.40;1.00
1391;DHT22;690;51.454;7.194;2023-09-19T00:26:32;13.40;1.00
1391;DHT22;690;51.454;7.194;2023-09-19T00:29:00;13.30;99.90
1391;DHT22;690;51.454;7.194;2023-09-19T00:31:31;13.30;15.50
1391;DHT22;690;51.454;7.194;2023-09-19T00:33:58;13.30;1.00
1391;DHT22;690;51.454;7.194;2023-09-19T00:36:29;13.30;1.00
1391;DHT22;690;51.454;7.194;2023-09-19T00:38:58;13.30;1.00
1391;DHT22;690;51.454;7.194;2023-09-19T00:41:24;13.20;1.00
1391;DHT22;690;51.454;7.194;2023-09-19T00:43:52;13.20;1.00
1391;DHT22;690;51.454;7.194;2023-09-19T00:46:19;13.20;1.00
1391;DHT22;690;51.454;7.194;2023-09-19T00:48:46;13.10;1.00
1391;DHT22;690;51.454;7.194;2023-09-19T00:51:15;13.10;1.00
1391;DHT22;690;51.454;7.194;2023-09-19T00:53:45;13.10;1.00
1391;DHT22;690;51.454;7.194;2023-09-19T00:56:15;13.10;1.00
1391;DHT22;690;51.454;7.194;2023-09-19T00:58:44;13.10;1.00
1391;DHT22;690;51.454;7.194;2023-09-19T01:01:12;13.00;1.00
1391;DHT22;690;51.454;7.194;2023-09-19T01:03:41;13.00;1.00
1391;DHT22;690;51.454;7.194;2023-09-19T01:06:08;13.00;1.00
1391;DHT22;690;51.454;7.194;2023-09-19T01:08:35;12.90;1.00
1391;DHT22;690;51.454;7.194;2023-09-19T01:11:09;12.90;1.00
1391;DHT22;690;51.454;7.194;2023-09-19T01:13:56;12.80;1.00
1391;DHT22;690;51.454;7.194;2023-09-19T01:16:32;12.80;1.00
1391;DHT22;690;51.454;7.194;2023-09-19T01:19:12;12.80;1.00
1391;DHT22;690;51.454;7.194;2023-09-19T01:21:55;12.80;1.00
1391;DHT22;690;51.454;7.194;2023-09-19T01:24:50;12.80;1.00
1391;DHT22;690;51.454;7.194;2023-09-19T01:27:55;12.80;1.00
1391;DHT22;690;51.454;7.194;2023-09-19T01:30:31;12.70;1.00
1391;DHT22;690;51.454;7.194;2023-09-19T01:32:59;12.70;1.00
1391;DHT22;690;51.454;7.194;2023-09-19T01:35:26;12.70;1.00
1391;DHT22;690;51.454;7.194;2023-09-19T01:37:53;12.70;1.00
1391;DHT22;690;51.454;7.194;2023-09-19T01:40:21;12.70;1.00
1391;DHT22;690;51.454;7.194;2023-09-19T01:42:56;12.70;1.00
1391;DHT22;690;51.454;7.194;2023-09-19T01:45:33;12.60;1.00
1391;DHT22;690;51.454;7.194;2023-09-19T01:48:09;12.60;1.00
1391;DHT22;690;51.454;7.194;2023-09-19T01:50:44;12.60;1.00
1391;DHT22;690;51.454;7.194;2023-09-19T01:53:24;12.60;1.00
1391;DHT22;690;51.454;7.194;2023-09-19T01:55:54;12.60;1.00
1391;DHT22;690;51.454;7.194;2023-09-19T01:58:27;12.60;1.00
1391;DHT22;690;51.454;7.194;2023-09-19T02:00:58;12.60;1.00
1391;DHT22;690;51.454;7.194;2023-09-19T02:03:26;12.50;1.00
1391;DHT22;690;51.454;7.194;2023-09-19T02:05:54;12.40;1.00
1391;DHT22;690;51.454;7.194;2023-09-19T02:08:22;12.40;1.00
1391;DHT22;690;51.454;7.194;2023-09-19T02:10:50;12.40;1.00
1391;DHT22;690;51.454;7.194;2023-09-19T02:13:19;12.50;1.00
1391;DHT22;690;51.454;7.194;2023-09-19T02:15:46;12.40;1.00
1391;DHT22;690;51.454;7.194;2023-09-19T02:18:15;12.40;1.00
1391;DHT22;690;51.454;7.194;2023-09-19T02:20:43;12.40;1.00
1391;DHT22;690;51.454;7.194;2023-09-19T02:23:10;12.40;1.00
1391;DHT22;690;51.454;7.194;2023-09-19T02:25:38;12.30;1.00
1391;DHT22;690;51.454;7.194;2023-09-19T02:28:06;12.30;99.90
1391;DHT22;690;51.454;7.194;2023-09-19T02:30:34;12.30;99.90
1391;DHT22;690;51.454;7.194;2023-09-19T02:33:01;12.20;99.90
1391;DHT22;690;51.454;7.194;2023-09-19T02:35:32;12.20;99.90
1391;DHT22;690;51.454;7.194;2023-09-19T02:38:02;12.20;99.90
1391;DHT22;690;51.454;7.194;2023-09-19T02:40:32;12.20;99.90
1391;DHT22;690;51.454;7.194;2023-09-19T02:43:01;12.20;99.90
1391;DHT22;690;51.454;7.194;2023-09-19T02:45:29;12.20;99.90
1391;DHT22;690;51.454;7.194;2023-09-19T02:47:56;12.10;99.90
1391;DHT22;690;51.454;7.194;2023-09-19T02:50:24;12.20;99.90
1391;DHT22;690;51.454;7.194;2023-09-19T02:52:52;12.10;99.90
1391;DHT22;690;51.454;7.194;2023-09-19T02:55:19;12.10;99.90
1391;DHT22;690;51.454;7.194;2023-09-19T02:57:47;12.10;99.90
1391;DHT22;690;51.454;7.194;2023-09-19T03:00:15;12.20;99.90
1391;DHT22;690;51.454;7.194;2023-09-19T03:02:46;12.10;99.90
1391;DHT22;690;51.454;7.194;2023-09-19T03:05:14;12.10;99.90
1391;DHT22;690;51.454;7.194;2023-09-19T03:07:41;12.10;99.90
1391;DHT22;690;51.454;7.194;2023-09-19T03:10:10;12.20;99.90
1391;DHT22;690;51.454;7.194;2023-09-19T03:12:37;12.10;99.90
1391;DHT22;690;51.454;7.194;2023-09-19T03:15:06;12.10;99.90
1391;DHT22;690;51.454;7.194;2023-09-19T03:17:34;12.10;52.40
1391;DHT22;690;51.454;7.194;2023-09-19T03:20:01;12.10;83.10
1391;DHT22;690;51.454;7.194;2023-09-19T03:22:29;12.10;1.00
1391;DHT22;690;51.454;7.194;2023-09-19T03:24:57;12.20;1.00
1391;DHT22;690;51.454;7.194;2023-09-19T03:27:25;12.20;1.00
1391;DHT22;690;51.454;7.194;2023-09-19T03:29:52;12.20;1.00
1391;DHT22;690;51.454;7.194;2023-09-19T03:32:19;12.10;1.00
1391;DHT22;690;51.454;7.194;2023-09-19T03:34:46;12.10;1.00
1391;DHT22;690;51.454;7.194;2023-09-19T03:37:14;12.10;1.00
1391;DHT22;690;51.454;7.194;2023-09-19T03:39:41;12.00;99.90
1391;DHT22;690;51.454;7.194;2023-09-19T03:42:08;12.00;99.90
1391;DHT22;690;51.454;7.194;2023-09-19T03:44:36;12.00;99.90
1391;DHT22;690;51.454;7.194;2023-09-19T03:47:04;12.00;99.90
1391;DHT22;690;51.454;7.194;2023-09-19T03:49:31;12.00;99.90
1391;DHT22;690;51.454;7.194;2023-09-19T03:51:58;12.00;99.90
1391;DHT22;690;51.454;7.194;2023-09-19T03:54:24;12.00;99.90
1391;DHT22;690;51.454;7.194;2023-09-19T03:56:51;12.00;99.90
1391;DHT22;690;51.454;7.194;2023-09-19T03:59:18;11.90;99.90
1391;DHT22;690;51.454;7.194;2023-09-19T04:01:47;11.90;99.90
1391;DHT22;690;51.454;7.194;2023-09-19T04:04:14;11.90;99.90
1391;DHT22;690;51.454;7.194;2023-09-19T04:06:41;11.90;99.90
1391;DHT22;690;51.454;7.194;2023-09-19T04:09:08;11.90;99.90
1391;DHT22;690;51.454;7.194;2023-09-19T04:11:35;11.90;99.90
1391;DHT22;690;51.454;7.194;2023-09-19T04:14:03;11.90;99.90
1391;DHT22;690;51.454;7.194;2023-09-19T04:16:31;11.80;99.90
1391;DHT22;690;51.454;7.194;2023-09-19T04:18:59;11.80;99.90
1391;DHT22;690;51.454;7.194;2023-09-19T04:21:26;11.80;99.90
1391;DHT22;690;51.454;7.194;2023-09-19T04:23:53;11.80;99.90
1391;DHT22;690;51.454;7.194;2023-09-19T04:26:21;11.80;99.90
1391;DHT22;690;51.454;7.194;2023-09-19T04:28:48;11.80;99.90
1391;DHT22;690;51.454;7.194;2023-09-19T04:31:15;11.80;99.90
1391;DHT22;690;51.454;7.194;2023-09-19T04:33:42;11.80;99.90
1391;DHT22;690;51.454;7.194;2023-09-19T04:36:11;11.80;99.90
1391;DHT22;690;51.454;7.194;2023-09-19T04:38:38;11.80;99.90
1391;DHT22;690;51.454;7.194;2023-09-19T04:41:05;11.80;99.90
1391;DHT22;690;51.454;7.194;2023-09-19T04:43:32;11.80;99.90
1391;DHT22;690;51.454;7.194;2023-09-19T04:45:59;11.80;99.90
1391;DHT22;690;51.454;7.194;2023-09-19T04:48:26;11.80;99.90
1391;DHT22;690;51.454;7.194;2023-09-19T04:50:56;11.90;99.90
1391;DHT22;690;51.454;7.194;2023-09-19T04:53:24;11.90;99.90
1391;DHT22;690;51.454;7.194;2023-09-19T04:55:51;11.80;99.90
1391;DHT22;690;51.454;7.194;2023-09-19T04:58:21;11.80;99.90
1391;DHT22;690;51.454;7.194;2023-09-19T05:00:48;11.80;99.90
1391;DHT22;690;51.454;7.194;2023-09-19T05:03:17;11.80;99.90
1391;DHT22;690;51.454;7.194;2023-09-19T05:05:46;11.90;99.90
1391;DHT22;690;51.454;7.194;2023-09-19T05:08:13;11.90;99.90
1391;DHT22;690;51.454;7.194;2023-09-19T05:10:42;11.90;99.90
1391;DHT22;690;51.454;7.194;2023-09-19T05:13:09;11.90;99.90
1391;DHT22;690;51.454;7.194;2023-09-19T05:15:37;11.90;99.90
1391;DHT22;690;51.454;7.194;2023-09-19T05:18:04;11.90;99.90
1391;DHT22;690;51.454;7.194;2023-09-19T05:20:32;11.90;99.90
1391;DHT22;690;51.454;7.194;2023-09-19T05:23:06;11.90;99.90
1391;DHT22;690;51.454;7.194;2023-09-19T05:25:38;11.90;99.90
1391;DHT22;690;51.454;7.194;2023-09-19T05:28:08;12.00;99.90
1391;DHT22;690;51.454;7.194;2023-09-19T05:30:37;12.00;99.90
1391;DHT22;690;51.454;7.194;2023-09-19T05:33:05;12.00;99.90
1391;DHT22;690;51.454;7.194;2023-09-19T05:35:33;12.00;99.90
1391;DHT22;690;51.454;7.194;2023-09-19T05:38:00;12.10;99.90
1391;DHT22;690;51.454;7.194;2023-09-19T05:40:27;12.00;99.90
1391;DHT22;690;51.454;7.194;2023-09-19T05:42:54;12.10;99.90
1391;DHT22;690;51.454;7.194;2023-09-19T05:45:22;12.10;99.90
1391;DHT22;690;51.454;7.194;2023-09-19T05:47:49;12.10;99.90
1391;DHT22;690;51.454;7.194;2023-09-19T05:50:17;12.10;99.90
1391;DHT22;690;51.454;7.194;2023-09-19T05:52:51;12.20;99.90
1391;DHT22;690;51.454;7.194;2023-09-19T05:55:18;12.20;99.90
1391;DHT22;690;51.454;7.194;2023-09-19T05:57:49;12.30;99.90
1391;DHT22;690;51.454;7.194;2023-09-19T06:00:18;12.40;99.90
1391;DHT22;690;51.454;7.194;2023-09-19T06:02:51;12.50;99.90
1391;DHT22;690;51.454;7.194;2023-09-19T06:05:18;12.50;99.90
1391;DHT22;690;51.454;7.194;2023-09-19T06:07:46;12.60;99.90
1391;DHT22;690;51.454;7.194;2023-09-19T06:10:13;12.60;99.90
1391;DHT22;690;51.454;7.194;2023-09-19T06:12:40;12.70;99.90
1391;DHT22;690;51.454;7.194;2023-09-19T06:15:09;12.70;93.90
1391;DHT22;690;51.454;7.194;2023-09-19T06:17:41;12.70;92.50
1391;DHT22;690;51.454;7.194;2023-09-19T06:20:09;12.70;58.00
1391;DHT22;690;51.454;7.194;2023-09-19T06:22:39;12.80;45.90
1391;DHT22;690;51.454;7.194;2023-09-19T06:25:07;12.80;28.10
1391;DHT22;690;51.454;7.194;2023-09-19T06:27:37;12.90;14.90
1391;DHT22;690;51.454;7.194;2023-09-19T06:30:06;13.00;1.00
1391;DHT22;690;51.454;7.194;2023-09-19T06:32:34;13.00;1.00
1391;DHT22;690;51.454;7.194;2023-09-19T06:35:01;13.00;1.00
1391;DHT22;690;51.454;7.194;2023-09-19T06:37:30;13.10;1.00
1391;DHT22;690;51.454;7.194;2023-09-19T06:39:57;13.10;1.00
1391;DHT22;690;51.454;7.194;2023-09-19T06:42:24;13.10;1.00
1391;DHT22;690;51.454;7.194;2023-09-19T06:44:51;13.20;1.00
1391;DHT22;690;51.454;7.194;2023-09-19T06:47:18;13.30;1.00
1391;DHT22;690;51.454;7.194;2023-09-19T06:49:46;13.30;1.00
1391;DHT22;690;51.454;7.194;2023-09-19T06:52:13;13.30;1.00
1391;DHT22;690;51.454;7.194;2023-09-19T06:54:41;13.30;1.00
1391;DHT22;690;51.454;7.194;2023-09-19T06:57:08;13.40;1.00
1391;DHT22;690;51.454;7.194;2023-09-19T06:59:35;13.50;1.00
1391;DHT22;690;51.454;7.194;2023-09-19T07:02:03;13.60;1.00
1391;DHT22;690;51.454;7.194;2023-09-19T07:04:31;13.70;1.00
1391;DHT22;690;51.454;7.194;2023-09-19T07:06:59;13.70;1.00
1391;DHT22;690;51.454;7.194;2023-09-19T07:09:26;13.80;1.00
1391;DHT22;690;51.454;7.194;2023-09-19T07:11:55;13.80;1.00
1391;DHT22;690;51.454;7.194;2023-09-19T07:14:23;13.80;1.00
1391;DHT22;690;51.454;7.194;2023-09-19T07:16:49;13.80;1.00
1391;DHT22;690;51.454;7.194;2023-09-19T07:19:17;13.80;1.00
1391;DHT22;690;51.454;7.194;2023-09-19T07:21:44;13.90;1.00
1391;DHT22;690;51.454;7.194;2023-09-19T07:24:13;13.90;1.00
1391;DHT22;690;51.454;7.194;2023-09-19T07:26:40;14.00;1.00
1391;DHT22;690;51.454;7.194;2023-09-19T07:29:08;14.00;1.00
1391;DHT22;690;51.454;7.194;2023-09-19T07:31:35;14.10;1.00
1391;DHT22;690;51.454;7.194;2023-09-19T07:34:02;14.10;1.00
1391;DHT22;690;51.454;7.194;2023-09-19T07:36:31;14.10;1.00
1391;DHT22;690;51.454;7.194;2023-09-19T07:38:58;14.20;1.00
1391;DHT22;690;51.454;7.194;2023-09-19T07:41:25;14.20;1.00
1391;DHT22;690;51.454;7.194;2023-09-19T07:43:52;14.20;1.00
1391;DHT22;690;51.454;7.194;2023-09-19T07:46:21;14.20;1.00
1391;DHT22;690;51.454;7.194;2023-09-19T07:48:50;14.30;1.00
1391;DHT22;690;51.454;7.194;2023-09-19T07:51:17;14.30;1.00
1391;DHT22;690;51.454;7.194;2023-09-19T07:53:44;14.40;1.00
1391;DHT22;690;51.454;7.194;2023-09-19T07:56:11;14.40;1.00
1391;DHT22;690;51.454;7.194;2023-09-19T07:58:39;14.40;1.00
1391;DHT22;690;51.454;7.194;2023-09-19T08:01:12;14.50;1.00
1391;DHT22;690;51.454;7.194;2023-09-19T08:03:43;14.50;1.00
1391;DHT22;690;51.454;7.194;2023-09-19T08:06:10;14.40;1.00
1391;DHT22;690;51.454;7.194;2023-09-19T08:08:40;14.40;1.00
1391;DHT22;690;51.454;7.194;2023-09-19T08:11:07;14.50;1.00
1391;DHT22;690;51.454;7.194;2023-09-19T08:13:37;14.60;1.00
1391;DHT22;690;51.454;7.194;2023-09-19T08:16:07;14.70;1.00
1391;DHT22;690;51.454;7.194;2023-09-19T08:18:33;14.80;1.00
1391;DHT22;690;51.454;7.194;2023-09-19T08:21:02;14.90;1.00
1391;DHT22;690;51.454;7.194;2023-09-19T08:23:29;14.90;1.00
1391;DHT22;690;51.454;7.194;2023-09-19T08:25:58;15.00;1.00
1391;DHT22;690;51.454;7.194;2023-09-19T08:28:27;15.10;1.00
1391;DHT22;690;51.454;7.194;2023-09-19T08:30:55;15.00;1.00
1391;DHT22;690;51.454;7.194;2023-09-19T08:33:23;15.00;1.00
1391;DHT22;690;51.454;7.194;2023-09-19T08:35:50;15.00;1.00
1391;DHT22;690;51.454;7.194;2023-09-19T08:38:19;15.10;1.00
1391;DHT22;690;51.454;7.194;2023-09-19T08:40:46;15.30;1.00
1391;DHT22;690;51.454;7.194;2023-09-19T08:43:12;15.30;1.00
1391;DHT22;690;51.454;7.194;2023-09-19T08:45:40;15.40;1.00
1391;DHT22;690;51.454;7.194;2023-09-19T08:48:17;15.50;1.00
1391;DHT22;690;51.454;7.194;2023-09-19T08:50:49;15.60;1.00
1391;DHT22;690;51.454;7.194;2023-09-19T08:53:26;15.80;1.00
1391;DHT22;690;51.454;7.194;2023-09-19T08:55:55;15.80;1.00
1391;DHT22;690;51.454;7.194;2023-09-19T08:58:26;15.80;1.00
1391;DHT22;690;51.454;7.194;2023-09-19T09:00:55;15.70;1.00
1391;DHT22;690;51.454;7.194;2023-09-19T09:03:23;15.80;1.00
1391;DHT22;690;51.454;7.194;2023-09-19T09:05:51;15.80;1.00
1391;DHT22;690;51.454;7.194;2023-09-19T09:08:19;15.90;1.00
1391;DHT22;690;51.454;7.194;2023-09-19T09:10:49;16.00;1.00
1391;DHT22;690;51.454;7.194;2023-09-19T09:13:17;16.10;1.00
1391;DHT22;690;51.454;7.194;2023-09-19T09:15:44;16.10;1.00
1391;DHT22;690;51.454;7.194;2023-09-19T09:18:11;16.10;1.00
1391;DHT22;690;51.454;7.194;2023-09-19T09:20:38;16.10;1.00
1391;DHT22;690;51.454;7.194;2023-09-19T09:23:06;16.10;1.00
1391;DHT22;690;51.454;7.194;2023-09-19T09:25:51;16.00;1.00
1391;DHT22;690;51.454;7.194;2023-09-19T09:28:23;16.10;1.00
1391;DHT22;690;51.454;7.194;2023-09-19T09:30:50;16.20;99.90
1391;DHT22;690;51.454;7.194;2023-09-19T09:33:17;16.20;99.90
1391;DHT22;690;51.454;7.194;2023-09-19T09:35:49;16.20;99.90
1391;DHT22;690;51.454;7.194;2023-09-19T09:38:20;16.20;99.90
1391;DHT22;690;51.454;7.194;2023-09-19T09:40:53;16.20;99.90
1391;DHT22;690;51.454;7.194;2023-09-19T09:43:26;16.40;99.90
1391;DHT22;690;51.454;7.194;2023-09-19T09:46:07;16.50;99.90
1391;DHT22;690;51.454;7.194;2023-09-19T09:48:44;16.60;99.90
1391;DHT22;690;51.454;7.194;2023-09-19T09:51:29;16.80;99.90
1391;DHT22;690;51.454;7.194;2023-09-19T09:54:10;16.90;99.90
1391;DHT22;690;51.454;7.194;2023-09-19T09:56:52;16.90;99.90
1391;DHT22;690;51.454;7.194;2023-09-19T09:59:20;16.90;99.90
1391;DHT22;690;51.454;7.194;2023-09-19T10:01:49;16.90;99.90
1391;DHT22;690;51.454;7.194;2023-09-19T10:04:28;16.80;99.90
1391;DHT22;690;51.454;7.194;2023-09-19T10:06:57;16.80;99.90
1391;DHT22;690;51.454;7.194;2023-09-19T10:09:30;16.80;99.90
1391;DHT22;690;51.454;7.194;2023-09-19T10:12:06;16.80;99.90
1391;DHT22;690;51.454;7.194;2023-09-19T10:14:37;16.90;99.90
1391;DHT22;690;51.454;7.194;2023-09-19T10:17:05;16.90;99.90
1391;DHT22;690;51.454;7.194;2023-09-19T10:19:37;17.00;99.90
1391;DHT22;690;51.454;7.194;2023-09-19T10:22:12;17.00;99.90
1391;DHT22;690;51.454;7.194;2023-09-19T10:24:43;17.20;99.90
1391;DHT22;690;51.454;7.194;2023-09-19T10:27:13;17.40;99.90
1391;DHT22;690;51.454;7.194;2023-09-19T10:29:43;17.60;99.90
1391;DHT22;690;51.454;7.194;2023-09-19T10:32:14;17.70;99.90
1391;DHT22;690;51.454;7.194;2023-09-19T10:34:45;17.80;99.90
1391;DHT22;690;51.454;7.194;2023-09-19T10:37:13;17.80;99.90
1391;DHT22;690;51.454;7.194;2023-09-19T10:39:45;17.70;99.90
1391;DHT22;690;51.454;7.194;2023-09-19T10:42:19;17.60;99.90
1391;DHT22;690;51.454;7.194;2023-09-19T10:44:47;17.60;99.90
1391;DHT22;690;51.454;7.194;2023-09-19T10:47:19;17.70;99.90
1391;DHT22;690;51.454;7.194;2023-09-19T10:49:46;17.70;99.90
1391;DHT22;690;51.454;7.194;2023-09-19T10:52:15;17.60;99.90
1391;DHT22;690;51.454;7.194;2023-09-19T10:54:47;17.60;99.90
1391;DHT22;690;51.454;7.194;2023-09-19T10:57:20;17.70;99.90
1391;DHT22;690;51.454;7.194;2023-09-19T11:00:03;17.80;99.90
1391;DHT22;690;51.454;7.194;2023-09-19T11:03:17;17.90;99.90
1391;DHT22;690;51.454;7.194;2023-09-19T11:06:04;17.90;99.90
1391;DHT22;690;51.454;7.194;2023-09-19T11:08:55;17.70;99.90
1391;DHT22;690;51.454;7.194;2023-09-19T11:11:44;17.70;99.90
1391;DHT22;690;51.454;7.194;2023-09-19T11:14:29;17.60;99.90
1391;DHT22;690;51.454;7.194;2023-09-19T11:17:30;17.60;99.90
1391;DHT22;690;51.454;7.194;2023-09-19T11:20:22;17.50;99.90
1391;DHT22;690;51.454;7.194;2023-09-19T11:23:23;17.40;99.90
1391;DHT22;690;51.454;7.194;2023-09-19T11:25:51;17.30;99.90
1391;DHT22;690;51.454;7.194;2023-09-19T11:28:44;17.30;99.90
1391;DHT22;690;51.454;7.194;2023-09-19T11:34:43;17.60;99.90
1391;DHT22;690;51.454;7.194;2023-09-19T11:40:33;18.00;99.90
1391;DHT22;690;51.454;7.194;2023-09-19T11:43:30;18.10;99.90
1391;DHT22;690;51.454;7.194;2023-09-19T11:46:08;18.30;99.90
1391;DHT22;690;51.454;7.194;2023-09-19T11:48:38;18.40;99.90
1391;DHT22;690;51.454;7.194;2023-09-19T11:51:16;18.60;99.90
1391;DHT22;690;51.454;7.194;2023-09-19T11:53:48;18.70;99.90
1391;DHT22;690;51.454;7.194;2023-09-19T11:56:16;18.80;99.90
1391;DHT22;690;51.454;7.194;2023-09-19T11:58:44;18.80;99.90
1391;DHT22;690;51.454;7.194;2023-09-19T12:01:13;18.80;99.90
1391;DHT22;690;51.454;7.194;2023-09-19T12:03:47;19.00;99.90
1391;DHT22;690;51.454;7.194;2023-09-19T12:06:20;19.20;99.90
1391;DHT22;690;51.454;7.194;2023-09-19T12:08:47;19.00;99.90
1391;DHT22;690;51.454;7.194;2023-09-19T12:11:16;19.00;99.90
1391;DHT22;690;51.454;7.194;2023-09-19T12:13:44;19.00;99.90
1391;DHT22;690;51.454;7.194;2023-09-19T12:16:15;19.00;99.90
1391;DHT22;690;51.454;7.194;2023-09-19T12:18:44;18.80;99.90
1391;DHT22;690;51.454;7.194;2023-09-19T12:21:27;18.80;99.90
1391;DHT22;690;51.454;7.194;2023-09-19T12:24:14;18.80;99.90
1391;DHT22;690;51.454;7.194;2023-09-19T12:26:46;18.60;99.90
1391;DHT22;690;51.454;7.194;2023-09-19T12:29:15;18.40;99.90
1391;DHT22;690;51.454;7.194;2023-09-19T12:31:51;18.30;99.90
1391;DHT22;690;51.454;7.194;2023-09-19T12:34:22;18.30;99.90
1391;DHT22;690;51.454;7.194;2023-09-19T12:37:05;18.40;99.90
1391;DHT22;690;51.454;7.194;2023-09-19T12:39:38;18.50;99.90
1391;DHT22;690;51.454;7.194;2023-09-19T12:42:08;18.50;99.90
1391;DHT22;690;51.454;7.194;2023-09-19T12:44:36;18.60;99.90
1391;DHT22;690;51.454;7.194;2023-09-19T12:47:11;18.60;99.90
1391;DHT22;690;51.454;7.194;2023-09-19T12:50:07;18.60;99.90
1391;DHT22;690;51.454;7.194;2023-09-19T12:52:41;18.60;99.90
1391;DHT22;690;51.454;7.194;2023-09-19T12:55:19;18.60;99.90
1391;DHT22;690;51.454;7.194;2023-09-19T12:57:59;18.60;99.90
1391;DHT22;690;51.454;7.194;2023-09-19T13:00:38;18.60;99.90
1391;DHT22;690;51.454;7.194;2023-09-19T13:03:18;18.70;99.90
1391;DHT22;690;51.454;7.194;2023-09-19T13:05:51;18.90;99.90
1391;DHT22;690;51.454;7.194;2023-09-19T13:08:25;19.00;99.90
1391;DHT22;690;51.454;7.194;2023-09-19T13:11:06;19.10;99.90
1391;DHT22;690;51.454;7.194;2023-09-19T13:13:32;19.20;99.90
1391;DHT22;690;51.454;7.194;2023-09-19T13:16:02;19.30;99.90
1391;DHT22;690;51.454;7.194;2023-09-19T13:18:30;19.20;99.90
1391;DHT22;690;51.454;7.194;2023-09-19T13:21:09;19.10;99.90
1391;DHT22;690;51.454;7.194;2023-09-19T13:23:42;18.90;99.90
1391;DHT22;690;51.454;7.194;2023-09-19T13:26:10;18.70;99.90
1391;DHT22;690;51.454;7.194;2023-09-19T13:28:38;18.70;99.90
1391;DHT22;690;51.454;7.194;2023-09-19T13:31:05;18.70;99.90
1391;DHT22;690;51.454;7.194;2023-09-19T13:33:33;18.90;99.90
1391;DHT22;690;51.454;7.194;2023-09-19T13:36:01;19.00;99.90
1391;DHT22;690;51.454;7.194;2023-09-19T13:38:28;19.10;99.90
1391;DHT22;690;51.454;7.194;2023-09-19T13:40:59;19.10;99.90
1391;DHT22;690;51.454;7.194;2023-09-19T13:43:26;19.00;99.90
1391;DHT22;690;51.454;7.194;2023-09-19T13:45:54;19.10;99.90
1391;DHT22;690;51.454;7.194;2023-09-19T13:48:23;19.20;99.90
1391;DHT22;690;51.454;7.194;2023-09-19T13:50:50;19.30;99.90
1391;DHT22;690;51.454;7.194;2023-09-19T13:53:17;19.30;99.90
1391;DHT22;690;51.454;7.194;2023-09-19T13:55:45;19.30;99.90
1391;DHT22;690;51.454;7.194;2023-09-19T13:58:13;19.40;99.90
1391;DHT22;690;51.454;7.194;2023-09-19T14:00:40;19.30;99.90
1391;DHT22;690;51.454;7.194;2023-09-19T14:03:08;19.20;99.90
1391;DHT22;690;51.454;7.194;2023-09-19T14:05:39;19.10;99.90
1391;DHT22;690;51.454;7.194;2023-09-19T14:08:09;19.30;99.90
1391;DHT22;690;51.454;7.194;2023-09-19T14:10:37;19.40;99.90
1391;DHT22;690;51.454;7.194;2023-09-19T14:13:04;19.40;99.90
1391;DHT22;690;51.454;7.194;2023-09-19T14:15:32;19.30;99.90
1391;DHT22;690;51.454;7.194;2023-09-19T14:18:04;19.40;99.90
1391;DHT22;690;51.454;7.194;2023-09-19T14:20:31;19.40;99.90
1391;DHT22;690;51.454;7.194;2023-09-19T14:22:58;19.40;99.90
1391;DHT22;690;51.454;7.194;2023-09-19T14:25:26;19.50;99.90
1391;DHT22;690;51.454;7.194;2023-09-19T14:27:54;19.40;99.90
1391;DHT22;690;51.454;7.194;2023-09-19T14:30:21;19.40;99.90
1391;DHT22;690;51.454;7.194;2023-09-19T14:32:50;19.30;99.90
1391;DHT22;690;51.454;7.194;2023-09-19T14:35:16;19.20;99.90
1391;DHT22;690;51.454;7.194;2023-09-19T14:37:43;19.10;99.90
1391;DHT22;690;51.454;7.194;2023-09-19T14:40:11;19.00;99.90
1391;DHT22;690;51.454;7.194;2023-09-19T14:42:41;19.00;99.90
1391;DHT22;690;51.454;7.194;2023-09-19T14:45:10;18.90;99.90
1391;DHT22;690;51.454;7.194;2023-09-19T14:47:37;18.90;99.90
1391;DHT22;690;51.454;7.194;2023-09-19T14:50:06;18.90;99.90
1391;DHT22;690;51.454;7.194;2023-09-19T14:52:34;18.90;99.90
1391;DHT22;690;51.454;7.194;2023-09-19T14:55:02;18.90;99.90
1391;DHT22;690;51.454;7.194;2023-09-19T14:57:30;18.80;99.90
1391;DHT22;690;51.454;7.194;2023-09-19T14:59:57;18.80;99.90
1391;DHT22;690;51.454;7.194;2023-09-19T15:02:26;18.70;99.90
1391;DHT22;690;51.454;7.194;2023-09-19T15:04:52;18.80;99.90
1391;DHT22;690;51.454;7.194;2023-09-19T15:07:21;18.80;99.90
1391;DHT22;690;51.454;7.194;2023-09-19T15:09:48;18.70;99.90
1391;DHT22;690;51.454;7.194;2023-09-19T15:12:15;18.70;99.90
1391;DHT22;690;51.454;7.194;2023-09-19T15:14:42;18.50;99.90
1391;DHT22;690;51.454;7.194;2023-09-19T15:17:09;18.50;99.90
1391;DHT22;690;51.454;7.194;2023-09-19T15:19:36;18.50;99.90
1391;DHT22;690;51.454;7.194;2023-09-19T15:22:04;18.50;99.90
1391;DHT22;690;51.454;7.194;2023-09-19T15:24:33;18.50;99.90
1391;DHT22;690;51.454;7.194;2023-09-19T15:27:00;18.40;99.90
1391;DHT22;690;51.454;7.194;2023-09-19T15:29:27;18.30;99.90
1391;DHT22;690;51.454;7.194;2023-09-19T15:31:55;18.10;99.90
1391;DHT22;690;51.454;7.194;2023-09-19T15:34:24;18.10;99.90
1391;DHT22;690;51.454;7.194;2023-09-19T15:36:51;18.00;99.90
1391;DHT22;690;51.454;7.194;2023-09-19T15:39:18;18.00;99.90
1391;DHT22;690;51.454;7.194;2023-09-19T15:41:49;17.90;99.90
1391;DHT22;690;51.454;7.194;2023-09-19T15:44:18;17.80;99.90
1391;DHT22;690;51.454;7.194;2023-09-19T15:46:45;17.80;99.90
1391;DHT22;690;51.454;7.194;2023-09-19T15:49:12;17.90;99.90
1391;DHT22;690;51.454;7.194;2023-09-19T15:51:39;18.10;99.90
1391;DHT22;690;51.454;7.194;2023-09-19T15:54:10;18.30;99.90
1391;DHT22;690;51.454;7.194;2023-09-19T15:56:38;18.50;99.90
1391;DHT22;690;51.454;7.194;2023-09-19T15:59:08;18.60;99.90
1391;DHT22;690;51.454;7.194;2023-09-19T16:01:38;18.70;99.90
1391;DHT22;690;51.454;7.194;2023-09-19T16:04:06;18.80;99.90
1391;DHT22;690;51.454;7.194;2023-09-19T16:06:34;18.80;99.90
1391;DHT22;690;51.454;7.194;2023-09-19T16:09:02;18.80;99.90
1391;DHT22;690;51.454;7.194;2023-09-19T16:11:33;18.70;99.90
1391;DHT22;690;51.454;7.194;2023-09-19T16:14:01;18.60;99.90
1391;DHT22;690;51.454;7.194;2023-09-19T16:16:29;18.50;99.90
1391;DHT22;690;51.454;7.194;2023-09-19T16:18:58;18.40;99.90
1391;DHT22;690;51.454;7.194;2023-09-19T16:21:27;18.30;99.90
1391;DHT22;690;51.454;7.194;2023-09-19T16:23:56;18.20;99.90
1391;DHT22;690;51.454;7.194;2023-09-19T16:26:24;18.10;99.90
1391;DHT22;690;51.454;7.194;2023-09-19T16:28:53;18.00;99.90
1391;DHT22;690;51.454;7.194;2023-09-19T16:31:20;18.00;99.90
1391;DHT22;690;51.454;7.194;2023-09-19T16:33:48;17.90;99.90
1391;DHT22;690;51.454;7.194;2023-09-19T16:36:17;17.80;99.90
1391;DHT22;690;51.454;7.194;2023-09-19T16:38:45;17.80;99.90
1391;DHT22;690;51.454;7.194;2023-09-19T16:41:13;17.80;99.90
1391;DHT22;690;51.454;7.194;2023-09-19T16:43:41;17.70;99.90
1391;DHT22;690;51.454;7.194;2023-09-19T16:46:11;17.60;99.90
1391;DHT22;690;51.454;7.194;2023-09-19T16:48:39;17.50;99.90
1391;DHT22;690;51.454;7.194;2023-09-19T16:51:09;17.40;99.90